Weather at Soewondo Air Force Base

Public forecast

Using degrees Celsius for public forecast. Weather courtesy of forecast.io.

Closest aviation weather report (METAR) to Soewondo Air Force Base

Closest report is Kualanamu International Airport, 12.8 nm (23.7 km) ENE.

2024/02/23 06:30 (retrieved 28 minutes ago)

WIMM 230630Z 35011KT 310V020 9999 SCT017 32/26 Q1011 NOSIG

Closest aviation forecast (TAF) to Soewondo Air Force Base

Closest forecast is Kualanamu International Airport, 12.8 nm (23.7 km) ENE.

2024/02/23 06:06 (retrieved 52 minutes ago)

TAF WIMM 230500Z 2306/2406 35010KT 9999 SCT018 BECMG 2312/2314 VRB03KT 5000 HZ